createdAt,value
2024-01-27T00:00:57.778Z,4.50
2024-01-27T00:03:26.869Z,4.50
2024-01-27T00:08:22.846Z,3.45
2024-01-27T00:10:50.503Z,4.03
2024-01-27T00:13:18.035Z,4.38
2024-01-27T00:15:45.576Z,4.63
2024-01-27T00:18:13.313Z,4.53
2024-01-27T00:20:42.447Z,5.25
2024-01-27T00:23:10.068Z,4.15
2024-01-27T00:25:37.759Z,4.40
2024-01-27T00:28:05.802Z,4.50
2024-01-27T00:30:33.552Z,4.22
2024-01-27T00:33:01.236Z,4.22
2024-01-27T00:35:28.905Z,4.13
2024-01-27T00:37:58.109Z,4.47
2024-01-27T00:42:53.341Z,3.75
2024-01-27T00:45:21.349Z,4.22
2024-01-27T00:47:49.303Z,3.72
2024-01-27T00:50:17.001Z,3.58
2024-01-27T00:52:44.559Z,3.75
2024-01-27T00:55:13.648Z,3.95
2024-01-27T00:57:41.348Z,3.65
2024-01-27T01:00:10.775Z,3.40
2024-01-27T01:02:38.874Z,3.95
2024-01-27T01:05:06.832Z,3.90
2024-01-27T01:07:34.467Z,4.35
2024-01-27T01:10:02.624Z,4.70
2024-01-27T01:12:31.773Z,4.50
2024-01-27T01:14:59.592Z,4.22
2024-01-27T01:17:27.241Z,3.90
2024-01-27T01:19:55.234Z,4.35
2024-01-27T01:22:22.839Z,4.47
2024-01-27T01:24:50.506Z,4.05
2024-01-27T01:27:20.216Z,3.97
2024-01-27T01:29:49.519Z,4.22
2024-01-27T01:32:17.171Z,4.32
2024-01-27T01:34:47.044Z,3.75
2024-01-27T01:37:14.802Z,4.53
2024-01-27T01:39:42.542Z,4.32
2024-01-27T01:42:10.167Z,4.47
2024-01-27T01:44:37.855Z,4.22
2024-01-27T01:47:08.886Z,4.30
2024-01-27T01:49:37.309Z,3.78
2024-01-27T01:52:06.045Z,4.07
2024-01-27T01:54:33.969Z,3.78
2024-01-27T01:57:02.012Z,3.97
2024-01-27T01:59:29.784Z,4.10
2024-01-27T02:01:57.532Z,3.88
2024-01-27T02:04:26.568Z,3.63
2024-01-27T02:06:54.232Z,3.80
2024-01-27T02:09:21.880Z,3.78
2024-01-27T02:11:49.664Z,4.40
2024-01-27T02:14:18.819Z,3.78
2024-01-27T02:16:46.392Z,4.38
2024-01-27T02:19:14.163Z,4.40
2024-01-27T02:21:43.316Z,4.43
2024-01-27T02:24:12.369Z,4.47
2024-01-27T02:26:39.965Z,5.03
2024-01-27T02:29:07.532Z,4.10
2024-01-27T02:31:35.325Z,4.50
2024-01-27T02:34:03.050Z,4.07
2024-01-27T02:36:30.828Z,4.55
2024-01-27T02:38:58.470Z,3.75
2024-01-27T02:41:28.053Z,4.35
2024-01-27T02:43:55.759Z,4.43
2024-01-27T02:46:23.412Z,3.92
2024-01-27T02:48:51.237Z,4.30
2024-01-27T02:51:20.722Z,4.30
2024-01-27T02:53:48.512Z,4.13
2024-01-27T02:56:17.800Z,4.75
2024-01-27T02:58:46.747Z,3.83
2024-01-27T03:01:14.450Z,4.47
2024-01-27T03:03:42.192Z,4.72
2024-01-27T03:06:09.927Z,4.75
2024-01-27T03:08:37.628Z,4.35
2024-01-27T03:11:05.542Z,4.60
2024-01-27T03:13:34.251Z,4.82
2024-01-27T03:16:03.406Z,4.05
2024-01-27T03:18:31.415Z,4.05
2024-01-27T03:20:59.351Z,4.35
2024-01-27T03:23:26.953Z,4.03
2024-01-27T03:25:54.928Z,4.88
2024-01-27T03:28:22.911Z,4.72
2024-01-27T03:30:50.566Z,3.92
2024-01-27T03:33:19.858Z,4.72
2024-01-27T03:35:47.645Z,4.07
2024-01-27T03:38:15.319Z,4.28
2024-01-27T03:40:42.845Z,5.57
2024-01-27T03:43:10.411Z,4.93
2024-01-27T03:45:38.111Z,5.70
2024-01-27T03:48:06.844Z,5.05
2024-01-27T03:50:35.868Z,5.05
2024-01-27T03:53:03.519Z,6.57
2024-01-27T03:55:32.503Z,4.75
2024-01-27T03:58:00.171Z,4.68
2024-01-27T04:00:29.000Z,5.50
2024-01-27T04:02:56.666Z,5.15
2024-01-27T04:05:24.292Z,5.20
2024-01-27T04:07:53.290Z,5.55
2024-01-27T04:10:21.456Z,5.30
2024-01-27T04:12:49.064Z,5.38
2024-01-27T04:15:16.755Z,4.72
2024-01-27T04:17:44.390Z,5.20
2024-01-27T04:20:12.714Z,4.78
2024-01-27T04:22:40.664Z,4.95
2024-01-27T04:25:09.900Z,6.95
2024-01-27T04:27:45.750Z,6.13
2024-01-27T04:30:14.338Z,4.60
2024-01-27T04:32:42.308Z,4.70
2024-01-27T04:35:10.820Z,4.82
2024-01-27T04:37:38.745Z,4.97
2024-01-27T04:40:07.397Z,4.57
2024-01-27T04:42:39.006Z,5.13
2024-01-27T04:45:07.272Z,4.20
2024-01-27T04:47:35.197Z,4.40
2024-01-27T04:50:02.936Z,4.07
2024-01-27T04:52:31.925Z,4.70
2024-01-27T04:54:59.711Z,4.30
2024-01-27T04:57:27.300Z,4.97
2024-01-27T04:59:56.384Z,4.35
2024-01-27T05:02:23.966Z,3.88
2024-01-27T05:04:51.505Z,4.80
2024-01-27T05:07:19.285Z,4.85
2024-01-27T05:09:47.009Z,4.93
2024-01-27T05:12:14.643Z,4.40
2024-01-27T05:14:44.751Z,4.68
2024-01-27T05:17:13.756Z,3.85
2024-01-27T05:19:41.591Z,4.55
2024-01-27T05:22:09.161Z,4.15
2024-01-27T05:24:36.817Z,4.53
2024-01-27T05:27:05.167Z,4.20
2024-01-27T05:29:32.743Z,4.07
2024-01-27T05:32:00.319Z,4.22
2024-01-27T05:34:29.494Z,4.38
2024-01-27T05:36:57.271Z,5.15
2024-01-27T05:39:24.871Z,4.50
2024-01-27T05:41:52.500Z,5.05
2024-01-27T05:44:20.070Z,5.38
2024-01-27T05:46:48.146Z,4.57
2024-01-27T05:49:15.895Z,5.20
2024-01-27T05:51:45.037Z,4.65
2024-01-27T05:54:15.944Z,4.78
2024-01-27T05:56:43.754Z,4.47
2024-01-27T05:59:11.341Z,4.35
2024-01-27T06:01:41.199Z,4.65
2024-01-27T06:04:09.083Z,4.50
2024-01-27T06:06:39.577Z,4.65
2024-01-27T06:09:12.383Z,4.53
2024-01-27T06:11:40.208Z,5.15
2024-01-27T06:14:07.875Z,4.90
2024-01-27T06:16:36.664Z,4.55
2024-01-27T06:19:04.744Z,5.93
2024-01-27T06:21:32.956Z,4.60
2024-01-27T06:24:01.022Z,4.07
2024-01-27T06:26:30.040Z,4.18
2024-01-27T06:28:58.089Z,4.10
2024-01-27T06:31:25.657Z,5.22
2024-01-27T06:33:53.621Z,4.75
2024-01-27T06:36:24.181Z,5.45
2024-01-27T06:38:52.443Z,4.85
2024-01-27T06:41:20.028Z,4.80
2024-01-27T06:43:48.965Z,5.50
2024-01-27T06:46:16.648Z,4.80
2024-01-27T06:48:44.748Z,5.03
2024-01-27T06:51:13.052Z,4.85
2024-01-27T06:53:40.776Z,4.85
2024-01-27T06:56:08.999Z,4.18
2024-01-27T06:58:37.638Z,4.78
2024-01-27T07:01:08.500Z,4.60
2024-01-27T07:03:36.261Z,4.30
2024-01-27T07:06:04.637Z,4.43
2024-01-27T07:08:36.905Z,4.60
2024-01-27T07:11:06.203Z,4.82
2024-01-27T07:13:33.842Z,6.18
2024-01-27T07:16:01.553Z,5.13
2024-01-27T07:18:31.121Z,5.80
2024-01-27T07:21:00.928Z,4.68
2024-01-27T07:23:28.723Z,5.60
2024-01-27T07:25:56.313Z,5.13
2024-01-27T07:28:23.882Z,5.55
2024-01-27T07:30:51.445Z,4.78
2024-01-27T07:33:19.177Z,4.88
2024-01-27T07:35:48.308Z,5.90
2024-01-27T07:38:15.841Z,5.32
2024-01-27T07:40:43.591Z,5.20
2024-01-27T07:43:11.106Z,5.80
2024-01-27T07:45:38.859Z,4.80
2024-01-27T07:48:07.367Z,5.53
2024-01-27T07:50:35.088Z,5.88
2024-01-27T07:53:04.360Z,4.97
2024-01-27T07:55:32.023Z,5.10
2024-01-27T07:57:59.712Z,5.95
2024-01-27T08:00:28.041Z,5.70
2024-01-27T08:02:55.623Z,5.72
2024-01-27T08:05:23.236Z,6.00
2024-01-27T08:07:51.069Z,6.82
2024-01-27T08:10:20.085Z,5.82
2024-01-27T08:12:47.723Z,6.30
2024-01-27T08:15:15.864Z,6.80
2024-01-27T08:17:43.724Z,6.18
2024-01-27T08:20:12.034Z,6.93
2024-01-27T08:22:39.608Z,6.55
2024-01-27T08:25:08.085Z,7.07
2024-01-27T08:27:37.169Z,7.38
2024-01-27T08:30:06.879Z,6.03
2024-01-27T08:32:35.841Z,7.72
2024-01-27T08:35:03.978Z,6.38
2024-01-27T08:37:33.706Z,7.25
2024-01-27T08:40:01.428Z,8.10
2024-01-27T08:42:29.107Z,7.82
2024-01-27T08:44:58.187Z,7.97
2024-01-27T08:47:25.767Z,8.02
2024-01-27T08:49:53.415Z,8.40
2024-01-27T08:52:21.121Z,7.75
2024-01-27T08:54:48.710Z,8.15
2024-01-27T08:57:16.415Z,9.40
2024-01-27T08:59:44.193Z,9.52
2024-01-27T09:02:13.592Z,10.30
2024-01-27T09:04:41.785Z,9.55
2024-01-27T09:07:09.505Z,10.82
2024-01-27T09:09:39.414Z,10.98
2024-01-27T09:12:07.933Z,10.10
2024-01-27T09:14:35.701Z,10.30
2024-01-27T09:17:03.629Z,8.25
2024-01-27T09:19:32.911Z,9.13
2024-01-27T09:22:00.606Z,8.55
2024-01-27T09:24:28.687Z,9.27
2024-01-27T09:26:56.349Z,8.68
2024-01-27T09:29:24.100Z,7.55
2024-01-27T09:31:51.958Z,6.90
2024-01-27T09:34:19.764Z,7.03
2024-01-27T09:36:48.909Z,7.03
2024-01-27T09:39:16.580Z,7.43
2024-01-27T09:41:44.905Z,7.40
2024-01-27T09:44:14.772Z,6.95
2024-01-27T09:46:42.839Z,13.68
2024-01-27T09:49:14.275Z,10.45
2024-01-27T09:51:42.849Z,7.65
2024-01-27T09:54:12.157Z,7.28
2024-01-27T09:56:40.068Z,7.00
2024-01-27T09:59:10.294Z,7.85
2024-01-27T10:01:39.377Z,7.07
2024-01-27T10:06:37.084Z,6.85
2024-01-27T10:09:05.054Z,5.90
2024-01-27T10:11:37.420Z,6.82
2024-01-27T10:14:05.005Z,6.30
2024-01-27T10:16:41.457Z,5.38
2024-01-27T10:19:14.889Z,5.35
2024-01-27T10:21:42.634Z,5.03
2024-01-27T10:24:10.317Z,5.35
2024-01-27T10:26:39.493Z,4.63
2024-01-27T10:29:07.524Z,4.93
2024-01-27T10:31:37.549Z,4.88
2024-01-27T10:34:06.313Z,5.20
2024-01-27T10:36:42.047Z,5.20
2024-01-27T10:39:21.632Z,4.90
2024-01-27T10:41:51.879Z,4.43
2024-01-27T10:44:20.840Z,5.13
2024-01-27T10:49:19.114Z,2.92
2024-01-27T10:51:52.733Z,3.00
2024-01-27T10:54:26.587Z,2.92
2024-01-27T10:56:57.516Z,2.80
2024-01-27T10:59:28.201Z,3.53
2024-01-27T11:01:57.181Z,3.35
2024-01-27T11:04:27.097Z,3.38
2024-01-27T11:06:55.084Z,3.17
2024-01-27T11:09:23.162Z,2.92
2024-01-27T11:11:51.458Z,3.25
2024-01-27T11:14:20.616Z,2.63
2024-01-27T11:16:49.049Z,3.00
2024-01-27T11:19:18.783Z,3.17
2024-01-27T11:21:46.582Z,2.92
2024-01-27T11:24:16.172Z,3.58
2024-01-27T11:26:43.990Z,3.45
2024-01-27T11:29:20.617Z,3.38
2024-01-27T11:31:50.506Z,2.50
2024-01-27T11:34:21.814Z,3.67
2024-01-27T11:36:49.904Z,4.32
2024-01-27T11:39:27.756Z,3.22
2024-01-27T11:42:06.345Z,3.45
2024-01-27T11:44:35.670Z,3.25
2024-01-27T11:47:05.644Z,3.58
2024-01-27T11:49:34.793Z,2.97
2024-01-27T11:52:03.153Z,3.50
2024-01-27T11:54:30.843Z,2.92
2024-01-27T11:56:58.563Z,2.47
2024-01-27T11:59:26.247Z,2.67
2024-01-27T12:01:53.920Z,2.60
2024-01-27T12:04:23.616Z,2.10
2024-01-27T12:06:51.605Z,2.67
2024-01-27T12:09:19.529Z,2.70
2024-01-27T12:11:47.395Z,2.20
2024-01-27T12:14:14.967Z,2.65
2024-01-27T12:16:42.703Z,2.55
2024-01-27T12:19:12.178Z,2.88
2024-01-27T12:21:48.896Z,2.83
2024-01-27T12:24:21.955Z,2.42
2024-01-27T12:26:50.281Z,2.72
2024-01-27T12:29:20.759Z,2.42
2024-01-27T12:31:48.453Z,2.05
2024-01-27T12:34:18.043Z,2.50
2024-01-27T12:36:48.601Z,1.90
2024-01-27T12:39:16.456Z,1.63
2024-01-27T12:41:44.219Z,1.80
2024-01-27T12:44:12.189Z,1.80
2024-01-27T12:46:39.966Z,2.00
2024-01-27T12:49:09.182Z,2.15
2024-01-27T12:51:37.724Z,2.55
2024-01-27T12:54:07.975Z,1.98
2024-01-27T12:56:36.210Z,2.25
2024-01-27T12:59:03.953Z,2.00
2024-01-27T13:01:31.620Z,2.13
2024-01-27T13:03:59.310Z,2.30
2024-01-27T13:06:27.074Z,2.22
2024-01-27T13:08:55.533Z,2.03
2024-01-27T13:11:25.543Z,2.00
2024-01-27T13:13:53.249Z,2.10
2024-01-27T13:16:20.985Z,1.98
2024-01-27T13:18:48.898Z,2.13
2024-01-27T13:21:16.717Z,1.90
2024-01-27T13:23:44.504Z,2.05
2024-01-27T13:26:18.184Z,1.90
2024-01-27T13:28:50.298Z,2.10
2024-01-27T13:31:19.545Z,2.10
2024-01-27T13:33:47.550Z,2.22
2024-01-27T13:36:15.422Z,1.80
2024-01-27T13:38:43.127Z,1.48
2024-01-27T13:41:10.751Z,1.98
2024-01-27T13:43:38.382Z,1.90
2024-01-27T13:46:07.683Z,1.52
2024-01-27T13:48:35.733Z,2.78
2024-01-27T13:51:04.285Z,1.77
2024-01-27T13:56:14.647Z,2.22
2024-01-27T13:58:42.880Z,2.15
2024-01-27T14:01:12.021Z,2.05
2024-01-27T14:03:40.255Z,1.95
2024-01-27T14:06:13.198Z,2.22
2024-01-27T14:08:41.235Z,2.00
2024-01-27T14:11:08.833Z,1.85
2024-01-27T14:13:36.439Z,1.85
2024-01-27T14:16:04.506Z,2.65
2024-01-27T14:18:34.408Z,1.70
2024-01-27T14:21:02.137Z,2.00
2024-01-27T14:23:29.955Z,2.42
2024-01-27T14:25:57.889Z,1.70
2024-01-27T14:28:26.082Z,3.03
2024-01-27T14:30:54.030Z,1.70
2024-01-27T14:33:22.343Z,1.77
2024-01-27T14:35:51.860Z,1.83
2024-01-27T14:38:19.441Z,1.75
2024-01-27T14:40:47.006Z,1.92
2024-01-27T14:43:14.988Z,1.83
2024-01-27T14:45:43.885Z,1.60
2024-01-27T14:48:11.955Z,1.67
2024-01-27T14:50:39.865Z,1.70
2024-01-27T14:53:08.920Z,1.80
2024-01-27T14:55:36.485Z,2.08
2024-01-27T14:58:05.201Z,1.42
2024-01-27T15:00:33.098Z,1.85
2024-01-27T15:03:03.102Z,1.67
2024-01-27T15:05:31.125Z,1.80
2024-01-27T15:07:58.892Z,1.17
2024-01-27T15:10:27.921Z,1.92
2024-01-27T15:12:55.818Z,1.50
2024-01-27T15:15:23.535Z,1.23
2024-01-27T15:17:51.333Z,1.73
2024-01-27T15:20:19.124Z,1.27
2024-01-27T15:22:46.865Z,1.58
2024-01-27T15:25:14.573Z,1.15
2024-01-27T15:27:44.612Z,1.58
2024-01-27T15:30:14.173Z,1.90
2024-01-27T15:32:41.860Z,1.40
2024-01-27T15:35:09.935Z,1.70
2024-01-27T15:37:39.503Z,1.90
2024-01-27T15:40:08.816Z,1.50
2024-01-27T15:42:37.376Z,1.20
2024-01-27T15:45:07.319Z,1.50
2024-01-27T15:47:35.023Z,1.60
2024-01-27T15:50:05.794Z,2.20
2024-01-27T15:52:33.798Z,1.70
2024-01-27T15:55:01.738Z,1.60
2024-01-27T15:57:29.440Z,1.65
2024-01-27T15:59:57.522Z,2.05
2024-01-27T16:02:26.662Z,2.30
2024-01-27T16:04:57.733Z,2.60
2024-01-27T16:07:25.421Z,2.30
2024-01-27T16:09:56.884Z,2.13
2024-01-27T16:12:24.651Z,2.53
2024-01-27T16:14:52.235Z,2.47
2024-01-27T16:17:19.794Z,2.20
2024-01-27T16:19:49.031Z,2.50
2024-01-27T16:22:23.811Z,2.20
2024-01-27T16:24:52.006Z,2.30
2024-01-27T16:27:28.815Z,2.38
2024-01-27T16:29:58.178Z,2.53
2024-01-27T16:32:26.145Z,2.20
2024-01-27T16:34:55.270Z,2.33
2024-01-27T16:37:22.912Z,2.78
2024-01-27T16:39:50.707Z,2.67
2024-01-27T16:42:18.358Z,2.55
2024-01-27T16:44:45.959Z,2.58
2024-01-27T16:47:13.513Z,2.47
2024-01-27T16:49:42.325Z,2.67
2024-01-27T16:54:39.257Z,2.72
2024-01-27T16:57:07.272Z,3.28
2024-01-27T16:59:35.579Z,3.10
2024-01-27T17:02:03.356Z,3.90
2024-01-27T17:04:30.986Z,4.05
2024-01-27T17:06:58.649Z,3.85
2024-01-27T17:09:27.642Z,3.80
2024-01-27T17:14:22.607Z,4.40
2024-01-27T17:16:50.490Z,4.50
2024-01-27T17:19:18.199Z,5.72
2024-01-27T17:21:45.888Z,4.72
2024-01-27T17:24:13.615Z,4.68
2024-01-27T17:26:42.660Z,4.50
2024-01-27T17:29:10.403Z,5.68
2024-01-27T17:31:38.058Z,6.80
2024-01-27T17:34:05.824Z,6.55
2024-01-27T17:36:33.617Z,6.65
2024-01-27T17:39:01.291Z,6.13
2024-01-27T17:41:28.964Z,6.85
2024-01-27T17:43:58.735Z,6.78
2024-01-27T17:46:26.331Z,5.93
2024-01-27T17:48:54.152Z,5.93
2024-01-27T17:51:22.001Z,5.68
2024-01-27T17:53:49.960Z,6.07
2024-01-27T17:56:23.930Z,5.40
2024-01-27T17:58:51.737Z,5.15
2024-01-27T18:01:20.868Z,5.50
2024-01-27T18:03:48.625Z,5.47
2024-01-27T18:06:16.715Z,6.70
2024-01-27T18:08:44.648Z,5.72
2024-01-27T18:11:12.264Z,5.63
2024-01-27T18:13:39.862Z,5.20
2024-01-27T18:16:09.416Z,5.00
2024-01-27T18:18:38.515Z,5.20
2024-01-27T18:21:06.254Z,4.53
2024-01-27T18:23:33.949Z,4.30
2024-01-27T18:26:01.574Z,5.07
2024-01-27T18:28:29.390Z,4.88
2024-01-27T18:30:57.178Z,5.45
2024-01-27T18:33:26.090Z,5.95
2024-01-27T18:35:57.678Z,4.68
2024-01-27T18:40:53.281Z,4.60
2024-01-27T18:43:20.853Z,4.90
2024-01-27T18:45:48.609Z,4.93
2024-01-27T18:48:16.532Z,5.63
2024-01-27T18:50:44.212Z,4.97
2024-01-27T18:53:13.509Z,5.50
2024-01-27T18:55:41.973Z,5.85
2024-01-27T18:58:10.296Z,5.22
2024-01-27T19:00:38.624Z,5.65
2024-01-27T19:03:10.574Z,7.30
2024-01-27T19:05:38.489Z,14.05
2024-01-27T19:08:06.386Z,5.78
2024-01-27T19:10:35.349Z,5.65
2024-01-27T19:15:33.125Z,3.83
2024-01-27T19:18:01.608Z,4.40
2024-01-27T19:20:29.289Z,7.93
2024-01-27T19:22:56.934Z,4.35
2024-01-27T19:25:24.621Z,5.03
2024-01-27T19:27:53.641Z,4.20
2024-01-27T19:32:49.546Z,3.92
2024-01-27T19:35:18.781Z,4.25
2024-01-27T19:37:46.400Z,5.40
2024-01-27T19:40:14.491Z,3.72
2024-01-27T19:42:42.145Z,3.95
2024-01-27T19:45:11.924Z,3.88
2024-01-27T19:47:40.058Z,3.95
2024-01-27T19:50:08.790Z,3.63
2024-01-27T19:52:36.433Z,4.05
2024-01-27T19:55:04.653Z,4.03
2024-01-27T19:57:32.429Z,3.88
2024-01-27T20:00:00.238Z,4.18
2024-01-27T20:02:29.361Z,4.32
2024-01-27T20:07:24.540Z,4.10
2024-01-27T20:09:52.204Z,3.80
2024-01-27T20:12:19.959Z,3.92
2024-01-27T20:14:47.734Z,4.35
2024-01-27T20:17:15.727Z,4.82
2024-01-27T20:19:45.882Z,5.30
2024-01-27T20:22:14.724Z,6.45
2024-01-27T20:24:42.567Z,8.00
2024-01-27T20:27:10.227Z,5.97
2024-01-27T20:29:38.008Z,6.50
2024-01-27T20:32:07.044Z,5.20
2024-01-27T20:34:36.280Z,4.20
2024-01-27T20:37:05.897Z,4.88
2024-01-27T20:39:33.869Z,4.05
2024-01-27T20:42:01.911Z,4.78
2024-01-27T20:44:29.662Z,4.28
2024-01-27T20:46:58.193Z,4.50
2024-01-27T20:49:26.132Z,3.92
2024-01-27T20:51:54.053Z,4.60
2024-01-27T20:54:23.141Z,3.88
2024-01-27T20:59:18.368Z,3.78
2024-01-27T21:01:47.230Z,4.70
2024-01-27T21:04:16.332Z,3.90
2024-01-27T21:06:44.773Z,3.83
2024-01-27T21:09:12.911Z,4.15
2024-01-27T21:11:42.104Z,4.80
2024-01-27T21:14:09.683Z,4.40
2024-01-27T21:16:40.241Z,4.55
2024-01-27T21:19:08.321Z,4.80
2024-01-27T21:21:36.068Z,6.03
2024-01-27T21:24:04.038Z,4.80
2024-01-27T21:26:31.817Z,7.30
2024-01-27T21:29:03.157Z,6.55
2024-01-27T21:31:30.818Z,8.63
2024-01-27T21:33:58.579Z,10.70
2024-01-27T21:36:26.278Z,7.43
2024-01-27T21:38:54.673Z,10.88
2024-01-27T21:41:22.302Z,5.53
2024-01-27T21:43:50.975Z,4.53
2024-01-27T21:46:19.949Z,5.30
2024-01-27T21:48:47.659Z,4.75
2024-01-27T21:51:15.583Z,5.50
2024-01-27T21:53:43.444Z,5.22
2024-01-27T21:56:12.436Z,5.30
2024-01-27T22:01:07.988Z,5.22
2024-01-27T22:03:40.118Z,5.30
2024-01-27T22:06:08.953Z,4.88
2024-01-27T22:08:37.689Z,5.05
2024-01-27T22:11:06.470Z,5.38
2024-01-27T22:13:34.306Z,5.85
2024-01-27T22:16:02.498Z,4.63
2024-01-27T22:18:32.131Z,6.80
2024-01-27T22:21:01.840Z,5.22
2024-01-27T22:23:29.840Z,4.40
2024-01-27T22:25:58.763Z,3.85
2024-01-27T22:28:26.371Z,4.82
2024-01-27T22:30:54.099Z,5.13
2024-01-27T22:33:24.442Z,4.38
2024-01-27T22:35:52.714Z,4.45
2024-01-27T22:38:21.820Z,4.05
2024-01-27T22:40:49.874Z,4.10
2024-01-27T22:43:17.639Z,5.05
2024-01-27T22:45:45.424Z,4.57
2024-01-27T22:48:16.851Z,4.20
2024-01-27T22:50:44.803Z,3.70
2024-01-27T22:53:13.726Z,4.20
2024-01-27T22:55:43.019Z,5.43
2024-01-27T22:58:10.588Z,3.42
2024-01-27T23:00:40.464Z,4.30
2024-01-27T23:03:10.933Z,3.85
2024-01-27T23:05:38.761Z,4.72
2024-01-27T23:08:06.825Z,4.60
2024-01-27T23:10:35.187Z,4.03
2024-01-27T23:13:04.560Z,3.33
2024-01-27T23:15:32.243Z,4.47
2024-01-27T23:18:00.014Z,4.70
2024-01-27T23:20:27.730Z,4.07
2024-01-27T23:22:55.308Z,4.50
2024-01-27T23:25:23.059Z,4.35
2024-01-27T23:27:50.758Z,4.03
2024-01-27T23:30:19.958Z,3.67
2024-01-27T23:32:47.779Z,4.72
2024-01-27T23:35:15.417Z,4.78
2024-01-27T23:37:44.417Z,4.75
2024-01-27T23:40:13.068Z,4.15
2024-01-27T23:42:42.277Z,3.90
2024-01-27T23:45:10.836Z,4.38
2024-01-27T23:47:39.932Z,5.45
2024-01-27T23:50:08.666Z,3.80
2024-01-27T23:52:37.757Z,4.75
2024-01-27T23:55:06.696Z,4.80
2024-01-27T23:57:34.447Z,4.88
